createdAt,value
2022-09-23T00:01:07.935Z,6.97
2022-09-23T00:03:38.509Z,6.05
2022-09-23T00:06:07.991Z,7.10
2022-09-23T00:08:35.371Z,7.60
2022-09-23T00:11:06.266Z,6.82
2022-09-23T00:13:34.013Z,7.68
2022-09-23T00:16:03.833Z,7.40
2022-09-23T00:18:31.394Z,6.68
2022-09-23T00:21:02.992Z,6.28
2022-09-23T00:23:30.345Z,6.95
2022-09-23T00:25:57.975Z,7.18
2022-09-23T00:28:25.244Z,6.07
2022-09-23T00:30:52.975Z,7.57
2022-09-23T00:33:20.642Z,6.25
2022-09-23T00:35:47.990Z,7.43
2022-09-23T00:38:17.322Z,7.10
2022-09-23T00:40:46.335Z,5.95
2022-09-23T00:43:15.028Z,6.07
2022-09-23T00:45:45.638Z,6.22
2022-09-23T00:48:17.195Z,5.18
2022-09-23T00:50:49.153Z,5.50
2022-09-23T00:53:22.672Z,6.25
2022-09-23T00:55:54.796Z,6.30
2022-09-23T00:58:27.010Z,5.95
2022-09-23T01:00:54.699Z,5.82
2022-09-23T01:03:23.057Z,7.28
2022-09-23T01:05:51.148Z,6.10
2022-09-23T01:08:21.550Z,6.10
2022-09-23T01:10:59.058Z,6.70
2022-09-23T01:13:36.066Z,8.02
2022-09-23T01:16:09.596Z,6.13
2022-09-23T01:18:47.124Z,6.15
2022-09-23T01:21:23.401Z,6.68
2022-09-23T01:24:23.557Z,6.45
2022-09-23T01:27:02.212Z,6.55
2022-09-23T01:30:05.971Z,6.40
2022-09-23T01:32:45.974Z,5.55
2022-09-23T01:35:23.892Z,6.72
2022-09-23T01:38:00.027Z,7.38
2022-09-23T01:40:35.330Z,6.82
2022-09-23T01:43:09.315Z,7.25
2022-09-23T01:45:43.567Z,7.15
2022-09-23T01:48:18.521Z,7.00
2022-09-23T01:50:56.672Z,5.68
2022-09-23T01:53:31.411Z,6.88
2022-09-23T01:56:03.015Z,4.57
2022-09-23T01:58:38.235Z,5.13
2022-09-23T02:01:08.778Z,5.03
2022-09-23T02:03:44.471Z,5.97
2022-09-23T02:06:16.219Z,5.82
2022-09-23T02:08:47.589Z,5.70
2022-09-23T02:11:15.737Z,6.22
2022-09-23T02:13:49.000Z,5.28
2022-09-23T02:16:25.603Z,5.85
2022-09-23T02:19:00.168Z,4.63
2022-09-23T02:21:34.069Z,5.88
2022-09-23T02:24:09.293Z,5.45
2022-09-23T02:26:48.783Z,5.32
2022-09-23T02:29:21.148Z,5.45
2022-09-23T02:34:32.635Z,4.18
2022-09-23T02:37:10.770Z,4.65
2022-09-23T02:39:46.364Z,3.97
2022-09-23T02:42:19.089Z,4.93
2022-09-23T02:44:46.733Z,4.68
2022-09-23T02:47:13.982Z,5.43
2022-09-23T02:49:42.574Z,5.28
2022-09-23T02:52:12.080Z,4.35
2022-09-23T02:54:40.722Z,4.60
2022-09-23T02:57:09.151Z,4.63
2022-09-23T02:59:37.091Z,4.25
2022-09-23T03:02:20.690Z,4.90
2022-09-23T03:04:59.031Z,6.03
2022-09-23T03:07:36.568Z,5.03
2022-09-23T03:10:09.843Z,5.07
2022-09-23T03:12:48.131Z,5.32
2022-09-23T03:15:25.342Z,4.97
2022-09-23T03:18:03.032Z,4.63
2022-09-23T03:20:35.549Z,4.13
2022-09-23T03:23:07.060Z,4.47
2022-09-23T03:25:38.240Z,4.75
2022-09-23T03:28:08.546Z,5.55
2022-09-23T03:30:37.829Z,4.97
2022-09-23T03:33:09.423Z,5.00
2022-09-23T03:36:13.767Z,4.43
2022-09-23T03:38:45.355Z,5.55
2022-09-23T03:41:19.767Z,8.45
2022-09-23T03:43:47.831Z,6.50
2022-09-23T03:46:18.506Z,5.85
2022-09-23T03:48:45.884Z,5.03
2022-09-23T03:51:21.592Z,4.75
2022-09-23T03:53:48.742Z,4.65
2022-09-23T03:56:16.432Z,4.57
2022-09-23T03:58:45.573Z,5.55
2022-09-23T04:01:14.866Z,4.88
2022-09-23T04:03:42.363Z,6.82
2022-09-23T04:06:09.760Z,5.65
2022-09-23T04:08:38.365Z,5.40
2022-09-23T04:11:05.908Z,5.05
2022-09-23T04:13:33.236Z,5.72
2022-09-23T04:16:00.747Z,4.78
2022-09-23T04:18:28.232Z,4.82
2022-09-23T04:20:57.896Z,4.78
2022-09-23T04:23:25.314Z,4.45
2022-09-23T04:25:56.466Z,4.75
2022-09-23T04:28:23.930Z,4.07
2022-09-23T04:30:51.261Z,3.85
2022-09-23T04:33:18.521Z,4.78
2022-09-23T04:35:50.572Z,3.90
2022-09-23T04:38:19.185Z,3.67
2022-09-23T04:40:46.950Z,3.42
2022-09-23T04:43:16.433Z,2.80
2022-09-23T04:45:44.153Z,3.33
2022-09-23T04:48:11.690Z,3.65
2022-09-23T04:50:39.516Z,2.58
2022-09-23T04:53:06.763Z,3.03
2022-09-23T04:55:34.030Z,3.53
2022-09-23T04:58:01.458Z,3.28
2022-09-23T05:00:30.174Z,2.63
2022-09-23T05:02:57.615Z,2.75
2022-09-23T05:05:24.850Z,2.88
2022-09-23T05:07:52.084Z,2.90
2022-09-23T05:10:19.441Z,2.80
2022-09-23T05:12:46.585Z,3.15
2022-09-23T05:15:15.307Z,3.13
2022-09-23T05:17:43.995Z,2.70
2022-09-23T05:20:11.735Z,2.85
2022-09-23T05:22:38.947Z,2.58
2022-09-23T05:25:06.807Z,2.55
2022-09-23T05:27:34.119Z,2.95
2022-09-23T05:30:01.401Z,3.17
2022-09-23T05:32:29.946Z,3.28
2022-09-23T05:34:58.604Z,3.10
2022-09-23T05:37:25.836Z,3.15
2022-09-23T05:39:53.147Z,3.13
2022-09-23T05:42:21.276Z,3.08
2022-09-23T05:44:49.044Z,3.15
2022-09-23T05:47:16.296Z,2.70
2022-09-23T05:49:59.032Z,2.38
2022-09-23T05:52:28.571Z,2.42
2022-09-23T05:54:56.011Z,2.50
2022-09-23T05:57:23.398Z,2.60
2022-09-23T05:59:50.535Z,2.67
2022-09-23T06:02:17.841Z,2.65
2022-09-23T06:04:45.597Z,2.88
2022-09-23T06:07:12.942Z,2.88
2022-09-23T06:09:42.415Z,2.58
2022-09-23T06:12:09.568Z,2.83
2022-09-23T06:14:37.182Z,2.63
2022-09-23T06:17:05.655Z,2.97
2022-09-23T06:19:32.862Z,2.72
2022-09-23T06:22:00.308Z,2.22
2022-09-23T06:24:31.301Z,2.58
2022-09-23T06:27:01.259Z,2.63
2022-09-23T06:29:30.046Z,1.88
2022-09-23T06:31:59.964Z,2.08
2022-09-23T06:34:27.168Z,2.13
2022-09-23T06:36:55.665Z,2.15
2022-09-23T06:39:22.956Z,2.38
2022-09-23T06:41:50.203Z,2.30
2022-09-23T06:44:18.913Z,3.42
2022-09-23T06:46:46.200Z,2.47
2022-09-23T06:49:13.702Z,2.60
2022-09-23T06:51:41.564Z,1.95
2022-09-23T06:54:09.061Z,2.53
2022-09-23T06:56:39.013Z,2.97
2022-09-23T06:59:07.724Z,2.70
2022-09-23T07:01:36.607Z,3.45
2022-09-23T07:04:03.938Z,2.53
2022-09-23T07:06:31.275Z,3.80
2022-09-23T07:08:58.560Z,2.90
2022-09-23T07:11:25.781Z,3.28
2022-09-23T07:13:53.159Z,3.55
2022-09-23T07:16:21.395Z,3.53
2022-09-23T07:18:50.118Z,3.88
2022-09-23T07:21:18.714Z,3.15
2022-09-23T07:23:47.723Z,3.17
2022-09-23T07:26:16.529Z,3.22
2022-09-23T07:28:44.037Z,4.35
2022-09-23T07:31:13.329Z,2.72
2022-09-23T07:33:44.335Z,3.90
2022-09-23T07:36:14.859Z,4.47
2022-09-23T07:38:45.427Z,3.38
2022-09-23T07:41:15.773Z,2.90
2022-09-23T07:43:44.223Z,3.03
2022-09-23T07:46:14.511Z,3.05
2022-09-23T07:48:42.219Z,3.17
2022-09-23T07:51:11.325Z,3.58
2022-09-23T07:53:40.113Z,2.92
2022-09-23T07:56:07.673Z,2.08
2022-09-23T07:58:35.480Z,2.60
2022-09-23T08:01:05.123Z,3.15
2022-09-23T08:03:32.516Z,2.60
2022-09-23T08:06:07.596Z,3.50
2022-09-23T08:08:35.793Z,3.15
2022-09-23T08:11:06.736Z,2.65
2022-09-23T08:13:34.433Z,2.40
2022-09-23T08:16:02.184Z,2.40
2022-09-23T08:18:30.361Z,2.80
2022-09-23T08:20:57.835Z,3.22
2022-09-23T08:23:25.055Z,2.60
2022-09-23T08:25:59.634Z,2.95
2022-09-23T08:28:28.720Z,2.92
2022-09-23T08:30:56.270Z,2.28
2022-09-23T08:33:24.053Z,2.67
2022-09-23T08:35:52.340Z,3.17
2022-09-23T08:38:20.796Z,3.03
2022-09-23T08:40:50.037Z,2.85
2022-09-23T08:43:23.754Z,2.65
2022-09-23T08:45:55.092Z,2.60
2022-09-23T08:48:29.457Z,1.92
2022-09-23T08:51:02.420Z,2.10
2022-09-23T08:53:32.882Z,1.95
2022-09-23T08:56:04.189Z,2.05
2022-09-23T08:58:43.367Z,2.47
2022-09-23T09:01:18.634Z,1.98
2022-09-23T09:03:50.651Z,2.60
2022-09-23T09:08:54.628Z,2.50
2022-09-23T09:11:24.423Z,2.97
2022-09-23T09:14:01.440Z,3.88
2022-09-23T09:17:00.606Z,2.67
2022-09-23T09:20:05.409Z,2.65
2022-09-23T09:22:43.886Z,3.88
2022-09-23T09:25:24.227Z,3.10
2022-09-23T09:27:54.632Z,3.38
2022-09-23T09:30:28.555Z,2.90
2022-09-23T09:33:02.092Z,3.20
2022-09-23T09:35:37.876Z,3.13
2022-09-23T09:38:08.051Z,2.67
2022-09-23T09:40:35.482Z,2.50
2022-09-23T09:43:06.042Z,2.70
2022-09-23T09:45:57.751Z,2.83
2022-09-23T09:48:37.918Z,2.60
2022-09-23T09:51:18.869Z,2.03
2022-09-23T09:53:46.107Z,2.10
2022-09-23T09:56:16.576Z,2.70
2022-09-23T09:58:48.619Z,2.35
2022-09-23T10:01:20.775Z,1.98
2022-09-23T10:03:53.197Z,1.90
2022-09-23T10:06:27.228Z,2.28
2022-09-23T10:09:17.218Z,1.75
2022-09-23T10:12:03.934Z,2.17
2022-09-23T10:14:31.686Z,2.33
2022-09-23T10:17:05.656Z,2.00
2022-09-23T10:19:37.261Z,1.70
2022-09-23T10:22:16.575Z,2.38
2022-09-23T10:24:49.165Z,2.30
2022-09-23T10:27:25.447Z,1.77
2022-09-23T10:29:56.928Z,1.90
2022-09-23T10:32:30.215Z,2.13
2022-09-23T10:35:03.849Z,2.50
2022-09-23T10:37:34.886Z,2.58
2022-09-23T10:40:32.338Z,2.20
2022-09-23T10:43:38.019Z,2.33
2022-09-23T10:46:27.512Z,2.03
2022-09-23T10:49:12.435Z,2.13
2022-09-23T10:51:49.280Z,2.88
2022-09-23T10:54:27.927Z,2.10
2022-09-23T10:59:48.522Z,1.35
2022-09-23T11:02:28.792Z,2.08
2022-09-23T11:05:20.928Z,2.08
2022-09-23T11:08:00.418Z,2.03
2022-09-23T11:10:55.976Z,2.17
2022-09-23T11:13:36.182Z,1.83
2022-09-23T11:16:14.483Z,1.80
2022-09-23T11:18:56.195Z,1.90
2022-09-23T11:21:35.383Z,1.92
2022-09-23T11:24:18.582Z,2.05
2022-09-23T11:26:55.573Z,2.17
2022-09-23T11:30:10.251Z,1.85
2022-09-23T11:33:15.156Z,2.30
2022-09-23T11:38:21.453Z,2.47
2022-09-23T11:40:54.882Z,2.70
2022-09-23T11:43:24.448Z,2.63
2022-09-23T11:45:58.938Z,2.30
2022-09-23T11:48:32.663Z,2.17
2022-09-23T11:51:02.855Z,1.90
2022-09-23T11:53:38.385Z,1.90
2022-09-23T11:56:22.860Z,2.10
2022-09-23T11:59:03.348Z,1.98
2022-09-23T12:01:37.874Z,2.22
2022-09-23T12:04:19.800Z,2.03
2022-09-23T12:06:55.089Z,2.50
2022-09-23T12:09:53.928Z,1.80
2022-09-23T12:12:27.093Z,2.60
2022-09-23T12:15:02.921Z,2.38
2022-09-23T12:18:02.110Z,2.28
2022-09-23T12:20:45.715Z,3.28
2022-09-23T12:23:29.904Z,3.00
2022-09-23T12:26:01.897Z,2.55
2022-09-23T12:31:02.311Z,2.60
2022-09-23T12:33:32.569Z,1.85
2022-09-23T12:36:05.441Z,2.55
2022-09-23T12:38:36.452Z,2.15
2022-09-23T12:41:20.395Z,1.80
2022-09-23T12:43:56.358Z,2.17
2022-09-23T12:46:27.722Z,2.50
2022-09-23T12:49:06.667Z,1.90
2022-09-23T12:51:35.396Z,1.80
2022-09-23T12:54:24.037Z,1.83
2022-09-23T12:57:10.599Z,2.28
2022-09-23T12:59:57.575Z,1.75
2022-09-23T13:02:36.359Z,2.35
2022-09-23T13:05:35.035Z,1.83
2022-09-23T13:08:08.420Z,2.65
2022-09-23T13:10:43.211Z,1.73
2022-09-23T13:13:20.538Z,1.75
2022-09-23T13:15:49.928Z,2.05
2022-09-23T13:18:39.240Z,1.52
2022-09-23T13:21:17.946Z,1.92
2022-09-23T13:24:20.313Z,1.42
2022-09-23T13:26:49.986Z,1.90
2022-09-23T13:29:23.683Z,1.88
2022-09-23T13:31:53.727Z,1.83
2022-09-23T13:34:23.655Z,1.70
2022-09-23T13:36:50.800Z,1.73
2022-09-23T13:39:24.674Z,2.13
2022-09-23T13:41:55.719Z,2.20
2022-09-23T13:44:23.773Z,2.20
2022-09-23T13:46:58.283Z,2.28
2022-09-23T13:49:29.578Z,2.28
2022-09-23T13:51:57.585Z,2.72
2022-09-23T13:54:29.209Z,2.15
2022-09-23T13:56:56.874Z,1.65
2022-09-23T13:59:28.824Z,2.08
2022-09-23T14:02:12.906Z,2.13
2022-09-23T14:04:40.559Z,2.65
2022-09-23T14:07:09.843Z,2.20
2022-09-23T14:09:41.407Z,2.83
2022-09-23T14:12:11.242Z,2.35
2022-09-23T14:14:41.658Z,2.25
2022-09-23T14:17:17.759Z,2.10
2022-09-23T14:19:45.648Z,2.83
2022-09-23T14:22:23.594Z,2.80
2022-09-23T14:24:51.726Z,2.70
2022-09-23T14:27:25.820Z,2.78
2022-09-23T14:29:53.449Z,2.42
2022-09-23T14:32:25.663Z,2.58
2022-09-23T14:35:05.802Z,3.33
2022-09-23T14:37:58.408Z,2.70
2022-09-23T14:40:51.978Z,2.72
2022-09-23T14:43:24.232Z,2.85
2022-09-23T14:45:55.026Z,2.88
2022-09-23T14:48:27.371Z,2.13
2022-09-23T14:50:57.288Z,2.22
2022-09-23T14:53:35.474Z,3.00
2022-09-23T14:56:11.745Z,2.17
2022-09-23T14:58:49.453Z,2.55
2022-09-23T15:01:35.687Z,3.03
2022-09-23T15:04:27.947Z,2.70
2022-09-23T15:06:57.169Z,2.72
2022-09-23T15:09:27.679Z,2.78
2022-09-23T15:11:59.245Z,2.50
2022-09-23T15:14:38.840Z,2.90
2022-09-23T15:17:16.246Z,2.88
2022-09-23T15:19:46.715Z,2.65
2022-09-23T15:22:16.718Z,2.70
2022-09-23T15:24:45.224Z,2.90
2022-09-23T15:27:28.056Z,1.63
2022-09-23T15:30:03.027Z,2.10
2022-09-23T15:32:33.353Z,2.88
2022-09-23T15:35:07.874Z,2.50
2022-09-23T15:37:37.202Z,1.70
2022-09-23T15:40:05.230Z,2.17
2022-09-23T15:42:32.597Z,2.45
2022-09-23T15:45:00.744Z,3.40
2022-09-23T15:47:28.012Z,2.13
2022-09-23T15:49:55.278Z,2.80
2022-09-23T15:52:23.967Z,2.38
2022-09-23T15:54:52.166Z,2.33
2022-09-23T15:57:19.761Z,2.22
2022-09-23T15:59:46.953Z,2.25
2022-09-23T16:02:22.732Z,2.70
2022-09-23T16:04:51.672Z,2.60
2022-09-23T16:07:23.031Z,2.40
2022-09-23T16:09:51.890Z,2.47
2022-09-23T16:12:21.528Z,2.67
2022-09-23T16:14:48.971Z,2.78
2022-09-23T16:17:16.222Z,2.70
2022-09-23T16:19:44.144Z,3.67
2022-09-23T16:22:14.619Z,2.30
2022-09-23T16:24:41.919Z,3.65
2022-09-23T16:27:16.652Z,2.90
2022-09-23T16:29:43.838Z,3.00
2022-09-23T16:32:11.182Z,2.67
2022-09-23T16:34:38.483Z,2.13
2022-09-23T16:37:06.982Z,2.63
2022-09-23T16:39:34.848Z,2.80
2022-09-23T16:42:02.361Z,2.05
2022-09-23T16:44:37.635Z,2.47
2022-09-23T16:47:05.849Z,2.53
2022-09-23T16:49:36.356Z,2.80
2022-09-23T16:52:04.034Z,2.50
2022-09-23T16:54:32.016Z,2.13
2022-09-23T16:56:59.659Z,2.38
2022-09-23T16:59:46.827Z,2.30
2022-09-23T17:02:42.079Z,2.20
2022-09-23T17:05:10.779Z,2.15
2022-09-23T17:07:38.060Z,2.40
2022-09-23T17:10:05.950Z,1.75
2022-09-23T17:12:35.344Z,2.80
2022-09-23T17:15:04.186Z,1.95
2022-09-23T17:17:37.670Z,2.55
2022-09-23T17:20:06.295Z,2.15
2022-09-23T17:22:34.025Z,1.90
2022-09-23T17:25:02.368Z,2.00
2022-09-23T17:27:31.940Z,1.83
2022-09-23T17:29:59.318Z,2.15
2022-09-23T17:32:27.081Z,1.98
2022-09-23T17:34:55.842Z,3.47
2022-09-23T17:37:23.057Z,2.45
2022-09-23T17:39:50.181Z,2.00
2022-09-23T17:42:18.386Z,1.90
2022-09-23T17:44:46.069Z,1.98
2022-09-23T17:47:13.681Z,2.10
2022-09-23T17:49:40.985Z,2.05
2022-09-23T17:52:09.614Z,1.90
2022-09-23T17:54:36.884Z,2.13
2022-09-23T17:57:04.431Z,2.88
2022-09-23T17:59:31.620Z,3.53
2022-09-23T18:02:00.800Z,2.28
2022-09-23T18:04:28.160Z,1.88
2022-09-23T18:06:55.688Z,2.38
2022-09-23T18:09:24.307Z,2.13
2022-09-23T18:11:51.462Z,2.20
2022-09-23T18:14:23.060Z,2.15
2022-09-23T18:16:52.112Z,2.70
2022-09-23T18:19:21.940Z,1.77
2022-09-23T18:21:51.830Z,2.45
2022-09-23T18:24:35.254Z,2.00
2022-09-23T18:27:04.376Z,2.00
2022-09-23T18:29:33.329Z,2.25
2022-09-23T18:32:01.283Z,6.30
2022-09-23T18:34:37.032Z,2.45
2022-09-23T18:37:15.057Z,2.38
2022-09-23T18:39:45.222Z,2.47
2022-09-23T18:42:18.168Z,2.40
2022-09-23T18:44:45.360Z,2.33
2022-09-23T18:47:32.545Z,2.17
2022-09-23T18:50:18.377Z,1.92
2022-09-23T18:52:45.707Z,3.25
2022-09-23T18:55:13.300Z,2.17
2022-09-23T18:57:42.268Z,2.45
2022-09-23T19:00:10.689Z,1.98
2022-09-23T19:02:38.531Z,2.65
2022-09-23T19:05:07.364Z,2.70
2022-09-23T19:07:34.732Z,2.47
2022-09-23T19:10:02.053Z,2.78
2022-09-23T19:12:33.040Z,2.80
2022-09-23T19:15:01.689Z,2.45
2022-09-23T19:17:30.809Z,1.73
2022-09-23T19:19:58.701Z,2.90
2022-09-23T19:22:26.350Z,2.08
2022-09-23T19:24:53.532Z,1.95
2022-09-23T19:27:20.712Z,2.50
2022-09-23T19:29:48.158Z,2.65
2022-09-23T19:32:16.965Z,2.10
2022-09-23T19:34:44.350Z,2.13
2022-09-23T19:37:12.373Z,2.58
2022-09-23T19:39:40.918Z,2.00
2022-09-23T19:42:08.139Z,2.25
2022-09-23T19:44:41.105Z,2.47
2022-09-23T19:47:15.568Z,2.65
2022-09-23T19:49:44.359Z,2.20
2022-09-23T19:52:11.627Z,1.98
2022-09-23T19:54:38.858Z,2.08
2022-09-23T19:57:06.495Z,2.20
2022-09-23T19:59:33.734Z,2.22
2022-09-23T20:02:01.129Z,1.83
2022-09-23T20:04:28.680Z,2.55
2022-09-23T20:06:57.229Z,2.40
2022-09-23T20:09:24.483Z,1.95
2022-09-23T20:11:52.272Z,2.25
2022-09-23T20:14:20.312Z,2.55
2022-09-23T20:16:47.561Z,2.42
2022-09-23T20:19:15.253Z,2.63
2022-09-23T20:21:42.468Z,2.50
2022-09-23T20:24:12.470Z,2.17
2022-09-23T20:26:58.449Z,2.38
2022-09-23T20:29:25.705Z,2.70
2022-09-23T20:31:53.017Z,2.42
2022-09-23T20:34:21.337Z,2.83
2022-09-23T20:36:49.077Z,2.33
2022-09-23T20:39:17.732Z,2.60
2022-09-23T20:41:45.005Z,2.28
2022-09-23T20:44:12.732Z,3.00
2022-09-23T20:46:45.277Z,2.17
2022-09-23T20:49:15.844Z,2.63
2022-09-23T20:51:43.155Z,2.40
2022-09-23T20:54:12.221Z,2.10
2022-09-23T20:56:40.962Z,2.97
2022-09-23T20:59:10.479Z,2.47
2022-09-23T21:01:38.079Z,1.80
2022-09-23T21:04:06.072Z,2.35
2022-09-23T21:06:34.725Z,2.80
2022-09-23T21:09:02.394Z,2.83
2022-09-23T21:11:30.143Z,2.85
2022-09-23T21:14:01.260Z,2.50
2022-09-23T21:16:29.245Z,3.22
2022-09-23T21:18:57.912Z,2.63
2022-09-23T21:21:25.438Z,2.25
2022-09-23T21:23:52.936Z,2.40
2022-09-23T21:26:21.702Z,2.63
2022-09-23T21:28:50.527Z,2.65
2022-09-23T21:31:25.689Z,2.38
2022-09-23T21:33:54.129Z,2.88
2022-09-23T21:36:21.790Z,2.90
2022-09-23T21:38:49.108Z,2.65
2022-09-23T21:41:16.332Z,2.65
2022-09-23T21:43:44.585Z,2.35
2022-09-23T21:46:15.558Z,2.67
2022-09-23T21:49:02.467Z,2.95
2022-09-23T21:51:31.538Z,2.78
2022-09-23T21:53:58.910Z,2.67
2022-09-23T21:56:28.162Z,2.72
2022-09-23T21:58:57.845Z,2.85
2022-09-23T22:01:29.683Z,2.65
2022-09-23T22:04:01.820Z,2.60
2022-09-23T22:08:59.948Z,2.58
2022-09-23T22:11:48.323Z,3.25
2022-09-23T22:14:17.143Z,3.15
2022-09-23T22:16:44.726Z,2.67
2022-09-23T22:19:14.621Z,2.75
2022-09-23T22:21:44.091Z,3.10
2022-09-23T22:24:12.657Z,2.45
2022-09-23T22:26:41.835Z,3.50
2022-09-23T22:29:30.392Z,3.13
2022-09-23T22:32:16.033Z,2.92
2022-09-23T22:34:50.499Z,3.33
2022-09-23T22:37:20.881Z,2.60
2022-09-23T22:39:48.108Z,3.45
2022-09-23T22:42:15.608Z,3.10
2022-09-23T22:44:43.633Z,3.13
2022-09-23T22:47:11.115Z,3.28
2022-09-23T22:49:38.350Z,2.67
2022-09-23T22:52:11.491Z,3.15
2022-09-23T22:54:38.981Z,3.08
2022-09-23T22:57:07.256Z,3.17
2022-09-23T22:59:34.976Z,3.13
2022-09-23T23:02:03.128Z,3.80
2022-09-23T23:04:31.114Z,2.70
2022-09-23T23:06:59.006Z,3.20
2022-09-23T23:09:27.832Z,3.17
2022-09-23T23:11:55.102Z,3.08
2022-09-23T23:14:22.542Z,2.97
2022-09-23T23:16:53.727Z,2.92
2022-09-23T23:19:21.046Z,3.08
2022-09-23T23:21:50.141Z,3.15
2022-09-23T23:24:19.638Z,2.80
2022-09-23T23:26:48.764Z,2.40
2022-09-23T23:29:17.892Z,2.92
2022-09-23T23:31:45.350Z,2.47
2022-09-23T23:34:13.758Z,2.97
2022-09-23T23:36:41.567Z,2.88
2022-09-23T23:39:09.364Z,2.80
2022-09-23T23:41:38.056Z,3.10
2022-09-23T23:44:07.963Z,2.05
2022-09-23T23:46:37.457Z,2.67
2022-09-23T23:49:05.030Z,2.28
2022-09-23T23:51:32.426Z,2.08
2022-09-23T23:54:00.328Z,2.15
2022-09-23T23:56:30.017Z,2.33
2022-09-23T23:58:58.789Z,2.83
